Terminal Aerodrome Forecast
Issued by NWS

Home | Current Version | Previous Version | Text Only | Print | Product List | Glossary On
Versions: 1 2 3 4 5 6 7 8 9 10 11 12 13 14 15 16 17 18 19 20 21 22 23 24 25 26 27 28 29 30 31 32 33 34 35 36 37 38 39
000
FTUS43 KGRB 301100
TAFRHI
TAF
KRHI 301139Z 3012/3112 31006KT P6SM SCT016 BKN025
      TEMPO 3012/3016 -SN BKN019
     FM301600 27003KT P6SM SCT030 BKN100
     FM302100 23006KT P6SM BKN080
     FM310200 21006KT P6SM -SN BKN050
     FM310900 21005KT P6SM SCT050 BKN080=

USA.gov is the U.S. government's official web portal to all federal, state and local government web resources and services.